createdAt,value
2022-10-24T00:01:27.842Z,73.41
2022-10-24T00:03:55.442Z,73.16
2022-10-24T00:06:23.153Z,73.87
2022-10-24T00:08:51.187Z,73.23
2022-10-24T00:11:23.933Z,73.87
2022-10-24T00:13:52.671Z,73.77
2022-10-24T00:16:20.384Z,74.41
2022-10-24T00:18:48.544Z,74.38
2022-10-24T00:21:16.413Z,72.75
2022-10-24T00:23:43.864Z,73.69
2022-10-24T00:26:12.993Z,73.51
2022-10-24T00:28:41.039Z,74.64
2022-10-24T00:31:14.318Z,75.66
2022-10-24T00:33:43.914Z,74.84
2022-10-24T00:36:18.795Z,74.72
2022-10-24T00:38:46.358Z,75.18
2022-10-24T00:41:24.358Z,75.11
2022-10-24T00:44:12.546Z,75.48
2022-10-24T00:46:45.460Z,76.13
2022-10-24T00:49:19.840Z,75.53
2022-10-24T00:51:53.341Z,75.77
2022-10-24T00:54:21.554Z,76.11
2022-10-24T00:57:12.139Z,76.38
2022-10-24T00:59:43.713Z,77.14
2022-10-24T01:02:11.885Z,77.28
2022-10-24T01:04:39.878Z,77.97
2022-10-24T01:07:25.846Z,77.64
2022-10-24T01:10:24.029Z,77.54
2022-10-24T01:13:21.940Z,76.97
2022-10-24T01:16:16.313Z,77.75
2022-10-24T01:18:50.773Z,77.78
2022-10-24T01:21:25.071Z,75.70
2022-10-24T01:24:11.079Z,76.21
2022-10-24T01:26:55.031Z,76.41
2022-10-24T01:29:43.964Z,75.86
2022-10-24T01:32:52.918Z,76.98
2022-10-24T01:35:40.525Z,77.95
2022-10-24T01:38:45.559Z,78.14
2022-10-24T01:41:24.397Z,76.53
2022-10-24T01:44:08.455Z,77.16
2022-10-24T01:46:41.727Z,73.74
2022-10-24T01:49:19.415Z,74.79
2022-10-24T01:51:51.277Z,74.80
2022-10-24T01:54:19.612Z,75.74
2022-10-24T01:56:51.256Z,76.40
2022-10-24T01:59:30.091Z,78.25
2022-10-24T02:02:36.604Z,78.97
2022-10-24T02:05:15.214Z,79.45
2022-10-24T02:07:47.516Z,79.89
2022-10-24T02:10:26.452Z,78.39
2022-10-24T02:13:02.585Z,75.06
2022-10-24T02:15:41.160Z,77.36
2022-10-24T02:18:09.979Z,80.42
2022-10-24T02:21:20.831Z,81.32
2022-10-24T02:24:27.798Z,81.75
2022-10-24T02:27:08.879Z,81.31
2022-10-24T02:29:53.366Z,82.30
2022-10-24T02:32:38.175Z,82.92
2022-10-24T02:35:08.513Z,82.61
2022-10-24T02:37:44.663Z,82.27
2022-10-24T02:40:16.230Z,82.06
2022-10-24T02:42:47.762Z,81.57
2022-10-24T02:45:17.188Z,82.78
2022-10-24T02:47:46.244Z,82.27
2022-10-24T02:50:14.469Z,81.94
2022-10-24T02:52:44.320Z,82.38
2022-10-24T02:55:12.699Z,81.15
2022-10-24T02:57:40.373Z,82.32
2022-10-24T03:00:09.030Z,80.85
2022-10-24T03:02:36.810Z,80.78
2022-10-24T03:05:04.684Z,81.42
2022-10-24T03:07:32.196Z,81.80
2022-10-24T03:09:59.655Z,82.09
2022-10-24T03:12:27.304Z,82.60
2022-10-24T03:14:54.864Z,83.54
2022-10-24T03:17:23.353Z,83.71
2022-10-24T03:19:50.764Z,83.08
2022-10-24T03:22:18.299Z,82.93
2022-10-24T03:24:55.147Z,82.72
2022-10-24T03:27:25.056Z,81.44
2022-10-24T03:29:52.582Z,82.41
2022-10-24T03:32:20.126Z,82.99
2022-10-24T03:34:49.179Z,83.06
2022-10-24T03:37:16.657Z,83.77
2022-10-24T03:39:44.303Z,83.01
2022-10-24T03:42:11.975Z,83.24
2022-10-24T03:44:39.520Z,83.76
2022-10-24T03:47:09.547Z,84.11
2022-10-24T03:49:37.040Z,84.19
2022-10-24T03:52:04.971Z,82.78
2022-10-24T03:54:32.716Z,87.78
2022-10-24T03:57:00.223Z,84.67
2022-10-24T03:59:27.707Z,82.63
2022-10-24T04:01:55.407Z,83.64
2022-10-24T04:04:22.963Z,84.39
2022-10-24T04:06:54.705Z,84.33
2022-10-24T04:09:22.829Z,83.65
2022-10-24T04:11:51.286Z,84.21
2022-10-24T04:14:19.024Z,84.91
2022-10-24T04:16:46.535Z,84.98
2022-10-24T04:19:17.149Z,84.93
2022-10-24T04:21:47.882Z,84.94
2022-10-24T04:24:16.082Z,84.83
2022-10-24T04:26:43.885Z,84.52
2022-10-24T04:29:11.371Z,86.07
2022-10-24T04:31:38.899Z,85.10
2022-10-24T04:34:06.473Z,84.56
2022-10-24T04:36:35.139Z,84.85
2022-10-24T04:39:02.978Z,85.27
2022-10-24T04:41:30.465Z,85.11
2022-10-24T04:43:58.051Z,86.23
2022-10-24T04:46:25.669Z,85.13
2022-10-24T04:48:53.636Z,86.45
2022-10-24T04:51:22.494Z,85.53
2022-10-24T04:53:51.806Z,85.83
2022-10-24T04:56:20.203Z,85.87
2022-10-24T04:58:47.898Z,85.63
2022-10-24T05:01:15.461Z,86.14
2022-10-24T05:03:42.926Z,86.09
2022-10-24T05:06:10.632Z,86.44
2022-10-24T05:08:38.315Z,86.68
2022-10-24T05:11:06.401Z,87.35
2022-10-24T05:13:36.658Z,86.54
2022-10-24T05:16:05.681Z,85.98
2022-10-24T05:18:33.379Z,85.67
2022-10-24T05:21:01.502Z,85.21
2022-10-24T05:23:29.475Z,85.19
2022-10-24T05:25:56.916Z,84.70
2022-10-24T05:28:24.418Z,84.23
2022-10-24T05:30:51.912Z,83.10
2022-10-24T05:33:19.356Z,83.11
2022-10-24T05:35:46.781Z,83.57
2022-10-24T05:38:14.280Z,82.84
2022-10-24T05:40:41.766Z,82.96
2022-10-24T05:43:09.439Z,82.62
2022-10-24T05:45:37.001Z,82.63
2022-10-24T05:48:04.864Z,81.43
2022-10-24T05:50:32.384Z,81.51
2022-10-24T05:52:59.806Z,81.70
2022-10-24T05:55:27.286Z,78.84
2022-10-24T05:57:54.691Z,78.11
2022-10-24T06:00:22.242Z,78.11
2022-10-24T06:02:49.736Z,77.76
2022-10-24T06:05:17.336Z,79.04
2022-10-24T06:07:45.853Z,75.47
2022-10-24T06:10:15.681Z,74.62
2022-10-24T06:12:43.480Z,75.53
2022-10-24T06:15:13.858Z,76.84
2022-10-24T06:17:41.602Z,79.30
2022-10-24T06:20:10.256Z,78.56
2022-10-24T06:22:37.833Z,77.47
2022-10-24T06:25:06.013Z,76.97
2022-10-24T06:27:33.518Z,75.20
2022-10-24T06:30:02.288Z,75.46
2022-10-24T06:32:29.833Z,76.69
2022-10-24T06:34:57.351Z,76.86
2022-10-24T06:37:24.951Z,75.83
2022-10-24T06:39:52.471Z,74.15
2022-10-24T06:42:19.925Z,74.40
2022-10-24T06:44:47.519Z,73.06
2022-10-24T06:47:17.097Z,71.48
2022-10-24T06:49:44.627Z,70.66
2022-10-24T06:52:12.076Z,69.34
2022-10-24T06:54:41.088Z,69.37
2022-10-24T06:57:09.345Z,68.33
2022-10-24T06:59:36.763Z,66.98
2022-10-24T07:02:06.069Z,67.92
2022-10-24T07:04:33.784Z,67.84
2022-10-24T07:07:02.539Z,67.57
2022-10-24T07:09:30.605Z,66.50
2022-10-24T07:11:59.540Z,65.54
2022-10-24T07:14:27.106Z,64.79
2022-10-24T07:16:54.559Z,65.47
2022-10-24T07:19:22.883Z,65.16
2022-10-24T07:21:50.720Z,63.33
2022-10-24T07:24:18.283Z,63.29
2022-10-24T07:26:45.695Z,64.30
2022-10-24T07:29:13.228Z,63.20
2022-10-24T07:31:40.626Z,63.53
2022-10-24T07:34:10.019Z,62.77
2022-10-24T07:36:41.546Z,60.83
2022-10-24T07:39:12.099Z,58.62
2022-10-24T07:41:41.751Z,57.96
2022-10-24T07:44:11.192Z,55.89
2022-10-24T07:46:41.551Z,54.50
2022-10-24T07:49:09.454Z,55.22
2022-10-24T07:51:36.973Z,53.07
2022-10-24T07:54:04.732Z,50.79
2022-10-24T07:56:32.166Z,50.53
2022-10-24T07:59:05.798Z,50.55
2022-10-24T08:01:42.192Z,49.89
2022-10-24T08:04:11.374Z,49.95
2022-10-24T08:06:38.958Z,50.21
2022-10-24T08:09:06.396Z,49.81
2022-10-24T08:11:33.891Z,48.91
2022-10-24T08:14:02.446Z,47.92
2022-10-24T08:16:30.046Z,48.56
2022-10-24T08:18:59.003Z,48.96
2022-10-24T08:21:27.298Z,47.93
2022-10-24T08:23:55.879Z,47.29
2022-10-24T08:26:26.148Z,47.07
2022-10-24T08:28:55.478Z,46.96
2022-10-24T08:31:25.444Z,46.36
2022-10-24T08:33:55.381Z,47.06
2022-10-24T08:36:31.899Z,44.83
2022-10-24T08:39:00.126Z,45.80
2022-10-24T08:41:46.839Z,43.03
2022-10-24T08:44:29.752Z,44.67
2022-10-24T08:47:30.624Z,43.88
2022-10-24T08:50:17.778Z,43.37
2022-10-24T08:53:11.997Z,42.56
2022-10-24T08:55:49.793Z,42.47
2022-10-24T08:58:30.019Z,41.60
2022-10-24T09:01:02.988Z,42.89
2022-10-24T09:04:01.620Z,42.53
2022-10-24T09:06:33.117Z,42.40
2022-10-24T09:09:09.322Z,41.10
2022-10-24T09:12:01.469Z,39.95
2022-10-24T09:14:35.992Z,39.04
2022-10-24T09:17:37.918Z,40.13
2022-10-24T09:20:30.086Z,39.68
2022-10-24T09:23:04.627Z,40.12
2022-10-24T09:25:37.289Z,37.77
2022-10-24T09:28:07.381Z,39.62
2022-10-24T09:30:37.550Z,39.86
2022-10-24T09:33:25.308Z,40.16
2022-10-24T09:35:59.555Z,39.45
2022-10-24T09:38:36.693Z,38.39
2022-10-24T09:41:26.993Z,37.53
2022-10-24T09:44:02.199Z,37.99
2022-10-24T09:46:39.670Z,36.75
2022-10-24T09:49:25.516Z,36.34
2022-10-24T09:52:25.361Z,36.49
2022-10-24T09:55:17.750Z,36.99
2022-10-24T09:57:46.111Z,36.62
2022-10-24T10:00:26.750Z,36.97
2022-10-24T10:03:02.672Z,36.33
2022-10-24T10:05:50.438Z,35.50
2022-10-24T10:08:32.923Z,35.50
2022-10-24T10:11:13.100Z,35.02
2022-10-24T10:13:53.417Z,34.67
2022-10-24T10:16:37.637Z,34.78
2022-10-24T10:19:15.145Z,33.07
2022-10-24T10:22:31.911Z,33.11
2022-10-24T10:25:01.590Z,34.38
2022-10-24T10:27:41.270Z,34.78
2022-10-24T10:30:18.947Z,34.90
2022-10-24T10:32:55.114Z,35.50
2022-10-24T10:35:49.284Z,34.76
2022-10-24T10:38:37.605Z,34.87
2022-10-24T10:41:29.144Z,34.49
2022-10-24T10:44:14.441Z,32.75
2022-10-24T10:46:57.314Z,32.39
2022-10-24T10:49:32.862Z,32.16
2022-10-24T10:52:36.046Z,32.23
2022-10-24T10:55:28.827Z,31.72
2022-10-24T10:58:02.038Z,30.82
2022-10-24T11:00:46.922Z,29.95
2022-10-24T11:03:35.928Z,30.45
2022-10-24T11:06:27.881Z,31.46
2022-10-24T11:09:34.183Z,31.31
2022-10-24T11:12:23.179Z,31.39
2022-10-24T11:15:14.506Z,30.19
2022-10-24T11:18:01.193Z,29.78
2022-10-24T11:20:54.064Z,28.79
2022-10-24T11:23:44.613Z,29.29
2022-10-24T11:26:46.583Z,28.51
2022-10-24T11:29:51.162Z,28.14
2022-10-24T11:32:39.730Z,28.17
2022-10-24T11:35:37.238Z,27.94
2022-10-24T11:38:15.259Z,27.92
2022-10-24T11:40:48.128Z,27.78
2022-10-24T11:43:33.356Z,27.25
2022-10-24T11:46:16.956Z,27.64
2022-10-24T11:49:03.666Z,27.71
2022-10-24T11:51:42.922Z,26.66
2022-10-24T11:54:39.888Z,27.15
2022-10-24T11:57:22.057Z,27.60
2022-10-24T11:59:53.452Z,27.57
2022-10-24T12:02:49.056Z,27.51
2022-10-24T12:05:30.790Z,26.72
2022-10-24T12:08:48.514Z,26.58
2022-10-24T12:11:46.878Z,26.54
2022-10-24T12:15:03.619Z,27.12
2022-10-24T12:17:57.694Z,27.44
2022-10-24T12:20:27.337Z,26.40
2022-10-24T12:22:55.985Z,26.32
2022-10-24T12:25:33.205Z,26.05
2022-10-24T12:28:14.944Z,26.40
2022-10-24T12:30:42.579Z,25.89
2022-10-24T12:33:27.206Z,26.17
2022-10-24T12:35:57.417Z,25.46
2022-10-24T12:38:30.492Z,25.98
2022-10-24T12:41:09.690Z,25.39
2022-10-24T12:43:43.397Z,25.73
2022-10-24T12:46:23.484Z,26.16
2022-10-24T12:48:59.882Z,24.73
2022-10-24T12:51:39.778Z,25.89
2022-10-24T12:54:13.205Z,26.34
2022-10-24T12:56:52.651Z,25.41
2022-10-24T12:59:31.311Z,25.02
2022-10-24T13:02:13.930Z,25.15
2022-10-24T13:05:08.641Z,26.10
2022-10-24T13:08:14.439Z,25.44
2022-10-24T13:10:59.362Z,24.36
2022-10-24T13:13:54.109Z,23.06
2022-10-24T13:16:30.762Z,23.50
2022-10-24T13:19:19.637Z,23.15
2022-10-24T13:21:56.285Z,24.16
2022-10-24T13:24:40.675Z,23.58
2022-10-24T13:27:12.719Z,23.45
2022-10-24T13:29:41.206Z,23.31
2022-10-24T13:32:16.316Z,23.53
2022-10-24T13:34:55.232Z,23.27
2022-10-24T13:37:31.573Z,22.29
2022-10-24T13:40:23.326Z,22.75
2022-10-24T13:43:00.205Z,23.04
2022-10-24T13:46:00.509Z,22.41
2022-10-24T13:48:36.001Z,23.36
2022-10-24T13:51:29.097Z,22.78
2022-10-24T13:54:29.095Z,23.75
2022-10-24T13:56:59.739Z,23.72
2022-10-24T13:59:39.722Z,23.93
2022-10-24T14:02:19.039Z,23.74
2022-10-24T14:04:47.897Z,23.75
2022-10-24T14:07:28.412Z,23.25
2022-10-24T14:10:06.928Z,23.64
2022-10-24T14:12:36.391Z,23.97
2022-10-24T14:15:08.865Z,23.77
2022-10-24T14:17:36.526Z,24.72
2022-10-24T14:20:25.459Z,24.82
2022-10-24T14:22:53.147Z,24.64
2022-10-24T14:25:31.254Z,24.57
2022-10-24T14:28:14.359Z,25.22
2022-10-24T14:30:53.763Z,25.20
2022-10-24T14:33:25.101Z,25.31
2022-10-24T14:35:57.708Z,25.71
2022-10-24T14:38:27.884Z,25.71
2022-10-24T14:41:08.318Z,26.68
2022-10-24T14:43:42.047Z,26.67
2022-10-24T14:46:39.451Z,27.42
2022-10-24T14:49:27.979Z,28.43
2022-10-24T14:52:20.815Z,29.35
2022-10-24T14:55:03.302Z,29.98
2022-10-24T14:57:34.352Z,30.96
2022-10-24T15:00:07.619Z,32.06
2022-10-24T15:02:43.181Z,32.93
2022-10-24T15:05:20.509Z,33.39
2022-10-24T15:08:21.792Z,35.25
2022-10-24T15:11:25.126Z,35.58
2022-10-24T15:14:06.342Z,37.06
2022-10-24T15:16:42.059Z,37.80
2022-10-24T15:19:19.314Z,38.31
2022-10-24T15:21:47.532Z,37.83
2022-10-24T15:24:27.982Z,39.21
2022-10-24T15:27:13.260Z,40.67
2022-10-24T15:29:42.947Z,40.84
2022-10-24T15:32:11.618Z,42.13
2022-10-24T15:34:39.113Z,42.40
2022-10-24T15:37:07.822Z,43.15
2022-10-24T15:39:35.477Z,43.81
2022-10-24T15:44:33.615Z,44.71
2022-10-24T15:47:03.632Z,44.60
2022-10-24T15:49:31.831Z,44.94
2022-10-24T15:52:01.695Z,45.29
2022-10-24T15:54:30.433Z,45.79
2022-10-24T15:57:00.412Z,46.47
2022-10-24T15:59:30.417Z,46.77
2022-10-24T16:02:00.541Z,46.31
2022-10-24T16:04:29.305Z,46.04
2022-10-24T16:06:58.170Z,45.82
2022-10-24T16:09:31.362Z,45.03
2022-10-24T16:11:59.033Z,45.59
2022-10-24T16:14:29.759Z,45.28
2022-10-24T16:17:00.773Z,45.81
2022-10-24T16:19:28.414Z,45.45
2022-10-24T16:21:58.748Z,45.92
2022-10-24T16:24:28.285Z,46.08
2022-10-24T16:26:56.259Z,46.18
2022-10-24T16:29:23.819Z,47.01
2022-10-24T16:31:51.854Z,46.73
2022-10-24T16:34:19.420Z,46.71
2022-10-24T16:36:46.910Z,46.99
2022-10-24T16:39:16.299Z,46.76
2022-10-24T16:41:46.285Z,46.87
2022-10-24T16:44:14.969Z,46.75
2022-10-24T16:46:42.479Z,46.98
2022-10-24T16:49:09.965Z,47.68
2022-10-24T16:51:41.733Z,47.24
2022-10-24T16:54:12.118Z,47.28
2022-10-24T16:56:39.691Z,47.80
2022-10-24T16:59:10.424Z,47.76
2022-10-24T17:01:40.694Z,48.10
2022-10-24T17:04:08.836Z,48.79
2022-10-24T17:06:37.838Z,48.86
2022-10-24T17:09:05.838Z,48.75
2022-10-24T17:11:44.953Z,49.38
2022-10-24T17:14:14.267Z,49.26
2022-10-24T17:16:43.680Z,49.38
2022-10-24T17:19:16.092Z,49.56
2022-10-24T17:22:05.418Z,49.11
2022-10-24T17:24:35.597Z,49.36
2022-10-24T17:27:03.821Z,49.58
2022-10-24T17:29:37.461Z,49.00
2022-10-24T17:32:06.880Z,49.90
2022-10-24T17:34:35.899Z,49.88
2022-10-24T17:37:38.219Z,50.22
2022-10-24T17:40:23.371Z,50.59
2022-10-24T17:42:52.009Z,51.21
2022-10-24T17:45:25.335Z,51.31
2022-10-24T17:47:57.181Z,51.69
2022-10-24T17:50:26.408Z,51.46
2022-10-24T17:52:55.035Z,51.79
2022-10-24T17:58:17.972Z,51.89
2022-10-24T18:00:48.614Z,51.54
2022-10-24T18:03:28.622Z,51.10
2022-10-24T18:06:08.172Z,51.71
2022-10-24T18:08:37.194Z,52.35
2022-10-24T18:11:09.648Z,52.75
2022-10-24T18:13:41.043Z,53.18
2022-10-24T18:16:18.324Z,54.05
2022-10-24T18:18:50.813Z,54.52
2022-10-24T18:21:25.177Z,55.74
2022-10-24T18:23:55.080Z,56.50
2022-10-24T18:26:27.930Z,56.54
2022-10-24T18:28:58.250Z,56.80
2022-10-24T18:31:29.784Z,56.84
2022-10-24T18:34:04.826Z,57.36
2022-10-24T18:36:37.232Z,57.30
2022-10-24T18:39:06.174Z,57.37
2022-10-24T18:42:28.777Z,57.14
2022-10-24T18:44:58.252Z,57.86
2022-10-24T18:47:30.953Z,58.00
2022-10-24T18:50:23.193Z,57.92
2022-10-24T18:53:30.786Z,58.37
2022-10-24T18:56:00.706Z,58.15
2022-10-24T18:58:28.640Z,58.05
2022-10-24T19:01:00.993Z,58.44
2022-10-24T19:03:40.051Z,58.17
2022-10-24T19:06:28.020Z,58.12
2022-10-24T19:08:56.726Z,58.47
2022-10-24T19:11:25.426Z,58.53
2022-10-24T19:13:53.369Z,59.16
2022-10-24T19:16:30.064Z,58.74
2022-10-24T19:19:03.211Z,59.24
2022-10-24T19:21:30.922Z,59.37
2022-10-24T19:24:00.038Z,59.68
2022-10-24T19:26:27.782Z,58.64
2022-10-24T19:28:55.408Z,59.39
2022-10-24T19:31:23.431Z,58.21
2022-10-24T19:33:54.995Z,53.92
2022-10-24T19:36:24.163Z,54.36
2022-10-24T19:38:57.900Z,55.40
2022-10-24T19:41:26.110Z,57.59
2022-10-24T19:43:54.110Z,59.40
2022-10-24T19:46:27.769Z,62.69
2022-10-24T19:48:56.358Z,65.29
2022-10-24T19:51:25.343Z,65.87
2022-10-24T19:53:53.544Z,66.58
2022-10-24T19:56:28.639Z,67.04
2022-10-24T19:58:57.408Z,67.65
2022-10-24T20:01:29.769Z,67.53
2022-10-24T20:04:01.093Z,67.63
2022-10-24T20:06:32.012Z,66.86
2022-10-24T20:08:59.488Z,65.70
2022-10-24T20:11:28.285Z,64.72
2022-10-24T20:13:55.863Z,66.42
2022-10-24T20:16:23.359Z,68.11
2022-10-24T20:18:51.176Z,69.24
2022-10-24T20:21:21.208Z,69.50
2022-10-24T20:23:50.092Z,69.25
2022-10-24T20:26:23.243Z,67.40
2022-10-24T20:28:54.143Z,69.45
2022-10-24T20:31:33.433Z,69.84
2022-10-24T20:34:07.127Z,69.26
2022-10-24T20:36:42.173Z,68.02
2022-10-24T20:39:10.818Z,67.64
2022-10-24T20:41:39.103Z,69.47
2022-10-24T20:44:07.200Z,69.20
2022-10-24T20:46:35.747Z,70.03
2022-10-24T20:49:03.991Z,70.43
2022-10-24T20:51:31.533Z,70.98
2022-10-24T20:53:59.094Z,71.75
2022-10-24T20:56:26.830Z,71.84
2022-10-24T20:58:58.657Z,72.03
2022-10-24T21:01:29.206Z,72.43
2022-10-24T21:03:58.755Z,73.92
2022-10-24T21:06:29.969Z,74.01
2022-10-24T21:11:35.645Z,73.26
2022-10-24T21:14:06.711Z,72.83
2022-10-24T21:16:35.361Z,73.61
2022-10-24T21:19:03.719Z,74.28
2022-10-24T21:21:31.620Z,73.76
2022-10-24T21:24:05.791Z,73.52
2022-10-24T21:26:40.103Z,73.70
2022-10-24T21:29:20.982Z,74.13
2022-10-24T21:31:59.658Z,74.87
2022-10-24T21:34:30.112Z,75.38
2022-10-24T21:37:01.307Z,75.39
2022-10-24T21:39:28.727Z,75.01
2022-10-24T21:41:56.224Z,74.20
2022-10-24T21:44:23.822Z,74.63
2022-10-24T21:46:51.953Z,74.49
2022-10-24T21:49:20.786Z,73.82
2022-10-24T21:51:49.841Z,75.16
2022-10-24T21:54:24.147Z,74.80
2022-10-24T21:56:52.368Z,75.07
2022-10-24T21:59:21.639Z,76.49
2022-10-24T22:01:52.132Z,76.81
2022-10-24T22:04:20.362Z,78.47
2022-10-24T22:06:48.221Z,78.68
2022-10-24T22:09:19.858Z,79.08
2022-10-24T22:11:48.203Z,78.59
2022-10-24T22:14:17.508Z,80.46
2022-10-24T22:16:46.259Z,80.52
2022-10-24T22:19:14.331Z,80.12
2022-10-24T22:21:48.206Z,80.43
2022-10-24T22:24:22.388Z,80.78
2022-10-24T22:26:51.410Z,82.87
2022-10-24T22:29:23.181Z,84.04
2022-10-24T22:31:52.793Z,84.92
2022-10-24T22:34:24.741Z,84.87
2022-10-24T22:37:11.196Z,86.01
2022-10-24T22:39:39.554Z,84.69
2022-10-24T22:42:14.662Z,84.20
2022-10-24T22:44:45.894Z,83.04
2022-10-24T22:47:43.386Z,83.48
2022-10-24T22:50:27.851Z,83.36
2022-10-24T22:52:55.729Z,83.99
2022-10-24T22:55:34.920Z,84.46
2022-10-24T22:58:05.639Z,83.76
2022-10-24T23:00:33.385Z,83.55
2022-10-24T23:03:22.831Z,83.38
2022-10-24T23:06:02.082Z,80.80
2022-10-24T23:08:39.367Z,79.03
2022-10-24T23:11:09.041Z,78.33
2022-10-24T23:13:36.899Z,78.44
2022-10-24T23:16:54.582Z,78.94
2022-10-24T23:19:29.003Z,79.00
2022-10-24T23:22:27.387Z,79.50
2022-10-24T23:24:59.055Z,81.05
2022-10-24T23:27:37.566Z,81.23
2022-10-24T23:30:21.827Z,81.81
2022-10-24T23:32:51.489Z,83.12
2022-10-24T23:35:20.629Z,82.52
2022-10-24T23:37:52.866Z,83.81
2022-10-24T23:40:33.461Z,84.19
2022-10-24T23:43:04.058Z,84.93
2022-10-24T23:45:57.808Z,85.27
2022-10-24T23:48:40.024Z,84.68
2022-10-24T23:51:15.612Z,84.66
2022-10-24T23:53:53.186Z,85.53
2022-10-24T23:56:27.349Z,84.81
2022-10-24T23:58:55.493Z,83.71
